Language: 


Des rapports , des résumés tant et plus, au choix de chacun....


Données statistiques de la station
Quotidien Rapport Avril 26, 2017 Unités:  Anglais    Métrique   les deux
« Précédent Jour
Suivant Jour »
Quotidien Hebdomadaire Mensuel Annuel Actuel
  Haut: Bas: Moyen:
Température: 55.6 °F 34.7 °F 43.9 °F
Pt de rosée: 46.4 °F 23 °F 35.4 °F
Humidité: 95 % 47 % 72 %
Vitesse du vent: 17.2 mph 0 mph 4.3 mph
Rafales: 19.5 mph - -
Vent:- - WSW
Pression: 30 in 29.8 in -
Précipitation: 0.15 in    
Historical Graphs
 
 
Données statistiques pour Avril 26, 2017
Heure Température Point de rosée Pression Vent Vitesse du vent Refales Humidité Pluie (taux horaire)
00:02 36.1 °F 23 °F 29.9 in WNW 4 mph 5.4 mph 59 % 0 in
00:07 36.5 °F 24.8 °F 29.9 in Calm   4.3 mph 59 % 0 in
00:12 36.7 °F 24.8 °F 29.9 in Calm   4.3 mph 59 % 0 in
00:17 36.9 °F 24.8 °F 29.9 in West 4.9 mph 5.8 mph 59 % 0 in
00:22 36.9 °F 24.8 °F 29.9 in West 3.6 mph 5.8 mph 60 % 0 in
00:27 37 °F 24.8 °F 29.9 in Calm   5.6 mph 60 % 0 in
00:33 37.4 °F 24.8 °F 29.9 in West 3.1 mph 4 mph 61 % 0 in
00:38 37.6 °F 24.8 °F 29.8 in WNW 1.1 mph 4 mph 61 % 0 in
00:43 38.3 °F 28.4 °F 29.8 in WNW 1.1 mph 3.1 mph 64 % 0 in
00:48 38.8 °F 28.4 °F 29.8 in North 5.4 mph 5.4 mph 65 % 0 in
00:53 39.6 °F 30.2 °F 29.9 in WNW 5.4 mph 7.2 mph 65 % 0 in
00:58 39.9 °F 30.2 °F 29.9 in NW 3.6 mph 7.2 mph 66 % 0 in
01:03 40.3 °F 30.2 °F 29.9 in West 3.4 mph 6 mph 68 % 0 in
01:08 40.3 °F 30.2 °F 29.9 in West 4.3 mph 7.8 mph 69 % 0 in
01:13 40.5 °F 30.2 °F 29.9 in West 5.4 mph 7.8 mph 69 % 0 in
01:18 40.5 °F 30.2 °F 29.9 in West 3.6 mph 7.6 mph 69 % 0 in
01:23 40.5 °F 32 °F 29.9 in West 4.9 mph 7.6 mph 70 % 0 in
01:28 40.5 °F 32 °F 29.9 in WSW 6.5 mph 7.8 mph 70 % 0 in
01:33 40.1 °F 32 °F 29.9 in WSW 4.7 mph 7.8 mph 70 % 0 in
01:39 39.7 °F 30.2 °F 29.9 in WNW 4.3 mph 6.3 mph 70 % 0 in
01:44 39.4 °F 30.2 °F 29.9 in West 4.9 mph 6 mph 71 % 0 in
01:49 39.2 °F 30.2 °F 29.9 in West 3.6 mph 6.5 mph 71 % 0 in
01:54 38.8 °F 30.2 °F 29.9 in WSW 3.4 mph 6.5 mph 71 % 0 in
01:59 38.7 °F 30.2 °F 29.9 in West 4 mph 6 mph 72 % 0 in
02:04 38.7 °F 32 °F 29.9 in West 1.3 mph 8.5 mph 74 % 0 in
02:09 38.8 °F 32 °F 29.8 in WSW 5.4 mph 8.5 mph 74 % 0 in
02:14 39 °F 32 °F 29.8 in WSW 6.7 mph 8.1 mph 76 % 0 in
02:19 39.2 °F 33.8 °F 29.8 in WNW 4.7 mph 8.7 mph 78 % 0 in
02:24 39.2 °F 33.8 °F 29.8 in West 5.6 mph 8.7 mph 77 % 0 in
02:29 39 °F 33.8 °F 29.8 in West 5.4 mph 7.8 mph 78 % 0 in
02:34 38.5 °F 32 °F 29.8 in West 5.4 mph 6.5 mph 78 % 0 in
02:39 38.3 °F 32 °F 29.8 in WSW 3.1 mph 6.5 mph 78 % 0 in
02:44 37.9 °F 32 °F 29.8 in West 5.4 mph 6.5 mph 78 % 0 in
02:49 37.6 °F 32 °F 29.8 in West 3.8 mph 6.3 mph 79 % 0 in
02:55 37.4 °F 32 °F 29.9 in West 5.4 mph 5.8 mph 79 % 0.02 in
03:00 37 °F 32 °F 29.9 in West 2.5 mph 6 mph 81 % 0.02 in
03:05 37 °F 32 °F 29.9 in West 4.3 mph 6 mph 81 % 0.02 in
03:10 36.9 °F 32 °F 29.9 in West 3.6 mph 6.3 mph 81 % 0.02 in
03:15 36.7 °F 32 °F 29.9 in West 3.8 mph 6.3 mph 82 % 0.02 in
03:20 36.3 °F 32 °F 29.9 in West 4.3 mph 5.8 mph 82 % 0.02 in
03:25 36.1 °F 32 °F 29.8 in West 4.3 mph 4.7 mph 82 % 0.02 in
03:30 35.8 °F 32 °F 29.8 in West 2 mph 4.7 mph 82 % 0.02 in
03:35 35.4 °F 30.2 °F 29.8 in Calm   4.3 mph 83 % 0.02 in
03:40 35.2 °F 30.2 °F 29.9 in Calm   4.3 mph 83 % 0.02 in
03:45 35.1 °F 30.2 °F 29.9 in Calm   3.1 mph 83 % 0.02 in
03:50 34.9 °F 30.2 °F 29.9 in Calm     84 % 0.02 in
03:55 34.7 °F 30.2 °F 29.8 in Calm     84 % 0 in
04:00 34.9 °F 30.2 °F 29.8 in NNW 1.1 mph 2.7 mph 84 % 0 in
04:05 35.6 °F 32 °F 29.9 in NNW 3.8 mph 4.9 mph 86 % 0 in
04:11 36.3 °F 33.8 °F 29.9 in NE 3.8 mph 4.9 mph 88 % 0 in
04:16 36.9 °F 33.8 °F 29.9 in NNE 4 mph 6.5 mph 89 % 0 in
04:21 37.2 °F 35.6 °F 29.9 in NNW 1.6 mph 6.5 mph 89 % 0 in
04:26 37.4 °F 35.6 °F 29.9 in Calm   4.9 mph 89 % 0 in
04:31 37.8 °F 35.6 °F 29.9 in Calm   2.5 mph 89 % 0 in
04:36 37.6 °F 33.8 °F 29.8 in West 2 mph 4.5 mph 88 % 0 in
04:41 37.4 °F 33.8 °F 29.8 in Calm   4.5 mph 88 % 0 in
04:46 37 °F 33.8 °F 29.8 in Calm   2.7 mph 88 % 0 in
04:51 36.9 °F 33.8 °F 29.9 in Calm   2.5 mph 87 % 0 in
04:56 36.5 °F 33.8 °F 29.9 in West 2.7 mph 4.7 mph 87 % 0 in
05:01 36.3 °F 33.8 °F 29.9 in West 3.8 mph 4.7 mph 87 % 0.02 in
05:06 36.3 °F 33.8 °F 29.9 in West 4.3 mph 5.6 mph 88 % 0.02 in
05:11 36.1 °F 33.8 °F 29.9 in West 3.8 mph 5.6 mph 88 % 0.02 in
05:16 36 °F 33.8 °F 29.9 in West 3.1 mph 4.9 mph 88 % 0.02 in
05:21 35.8 °F 33.8 °F 29.9 in Calm   3.6 mph 88 % 0.02 in
05:22 35.8 °F 33.8 °F 29.9 in Calm   3.1 mph 88 % 0.02 in
05:27 35.4 °F 32 °F 29.9 in West 1.1 mph 2.9 mph 88 % 0.02 in
05:32 35.4 °F 32 °F 29.9 in West 2.5 mph 2.9 mph 88 % 0.02 in
05:37 35.4 °F 33.8 °F 29.9 in Calm   2.9 mph 89 % 0.02 in
05:42 35.6 °F 33.8 °F 29.9 in WNW 0.9 mph 2.9 mph 89 % 0.02 in
05:47 35.8 °F 33.8 °F 29.9 in Calm   3.1 mph 90 % 0.02 in
05:52 35.8 °F 33.8 °F 29.9 in West 2.2 mph 4.3 mph 90 % 0.02 in
05:57 36 °F 33.8 °F 29.9 in SSW 1.6 mph 4.3 mph 91 % 0.02 in
06:02 36.1 °F 33.8 °F 29.9 in Calm   2.7 mph 91 % 0 in
06:07 36.1 °F 33.8 °F 29.9 in North 2.2 mph 3.8 mph 92 % 0 in
06:12 36.3 °F 35.6 °F 29.9 in NW 2.7 mph 4 mph 93 % 0 in
06:17 36.3 °F 35.6 °F 29.9 in NW 1.1 mph 4.3 mph 94 % 0 in
06:22 36.5 °F 35.6 °F 29.8 in NNW 4.3 mph 6.3 mph 94 % 0 in
06:27 36.7 °F 35.6 °F 29.8 in West 4.9 mph 6.5 mph 95 % 0 in
06:42 37.6 °F 37.4 °F 29.9 in NNW 3.4 mph 12.1 mph 95 % 0 in
06:47 37.9 °F 37.4 °F 29.9 in North 2.9 mph 7.6 mph 95 % 0 in
06:53 38.3 °F 37.4 °F 29.9 in NNW 3.1 mph 6.5 mph 95 % 0 in
06:58 38.5 °F 37.4 °F 29.9 in NNW 2.2 mph 3.6 mph 94 % 0 in
07:03 38.7 °F 37.4 °F 29.9 in North 5.4 mph 5.6 mph 94 % 0 in
07:08 38.8 °F 37.4 °F 29.9 in North 1.6 mph 5.8 mph 93 % 0 in
07:13 39 °F 37.4 °F 29.9 in Calm   5.8 mph 93 % 0 in
07:18 39.2 °F 37.4 °F 29.9 in NNW 2.5 mph 4 mph 93 % 0 in
07:23 39.2 °F 37.4 °F 29.9 in Calm   4.7 mph 93 % 0 in
07:28 39.6 °F 37.4 °F 29.9 in Calm   4.7 mph 92 % 0 in
07:33 39.9 °F 37.4 °F 29.9 in Calm   3.4 mph 93 % 0 in
07:38 40.6 °F 39.2 °F 29.9 in NNW 1.1 mph 5.8 mph 93 % 0 in
07:43 41.7 °F 41 °F 29.9 in Calm   5.8 mph 93 % 0 in
07:48 42.1 °F 41 °F 29.9 in North 4.9 mph 5.8 mph 93 % 0 in
07:53 42.4 °F 41 °F 29.9 in North 3.4 mph 5.8 mph 92 % 0 in
07:58 42.8 °F 41 °F 29.9 in NNW 2 mph 5.4 mph 91 % 0 in
08:03 42.3 °F 39.2 °F 29.9 in WNW 2.7 mph 4.3 mph 90 % 0 in
08:08 42.3 °F 39.2 °F 29.9 in Calm   4.3 mph 89 % 0 in
08:13 43.3 °F 41 °F 29.9 in West 2.5 mph 4.3 mph 89 % 0.03 in
08:18 44.4 °F 42.8 °F 29.9 in Calm   4.3 mph 91 % 0.03 in
08:23 44.4 °F 41 °F 29.9 in NE 2 mph 4 mph 88 % 0.03 in
08:28 43.7 °F 41 °F 29.9 in NNE 5.6 mph 5.6 mph 86 % 0.03 in
08:33 42.8 °F 39.2 °F 29.9 in South 5.6 mph 6.7 mph 86 % 0.03 in
08:38 41.9 °F 39.2 °F 29.9 in North 4 mph 8.1 mph 85 % 0.03 in
08:43 40.8 °F 37.4 °F 29.9 in Calm   8.1 mph 84 % 0.03 in
08:49 39.9 °F 35.6 °F 29.9 in NE 1.6 mph 5.8 mph 84 % 0.03 in
08:54 39.7 °F 35.6 °F 29.9 in Calm   4.3 mph 85 % 0.03 in
08:59 39.9 °F 35.6 °F 29.9 in Calm   4 mph 86 % 0.16 in
09:04 40.3 °F 37.4 °F 29.9 in Calm   3.6 mph 88 % 0.16 in
09:09 40.3 °F 37.4 °F 29.9 in NW 2.2 mph 3.4 mph 88 % 0.16 in
09:14 40.1 °F 37.4 °F 29.9 in North 0.9 mph 3.6 mph 88 % 0.13 in
09:19 39.9 °F 37.4 °F 29.9 in Calm   3.6 mph 88 % 0.13 in
09:24 39.9 °F 37.4 °F 29.9 in NNW 3.4 mph 4.9 mph 89 % 0.13 in
09:29 40.3 °F 37.4 °F 29.9 in West 1.3 mph 4.9 mph 90 % 0.13 in
09:34 40.5 °F 37.4 °F 29.9 in NW 3.4 mph 3.6 mph 91 % 0.13 in
09:39 40.6 °F 37.4 °F 29.9 in NNE 3.8 mph 4.3 mph 91 % 0.21 in
09:49 41.7 °F 39.2 °F 29.9 in NE 4.9 mph 6.5 mph 92 % 0.21 in
09:54 43.7 °F 42.8 °F 29.9 in NNW 2 mph 6.5 mph 93 % 0.21 in
09:59 43.5 °F 42.8 °F 29.9 in NE 1.1 mph 5.8 mph 93 % 0.08 in
10:04 43.2 °F 41 °F 29.9 in NE 7.6 mph 7.6 mph 91 % 0.08 in
10:09 43.3 °F 41 °F 29.9 in North 2.7 mph 7.6 mph 91 % 0.11 in
10:14 45.9 °F 44.6 °F 29.9 in North 4.7 mph 6.5 mph 93 % 0.11 in
10:19 46.2 °F 44.6 °F 29.9 in ENE 3.4 mph 5.8 mph 93 % 0.11 in
10:24 44.2 °F 41 °F 29.9 in NE 7.2 mph 8.7 mph 89 % 0.11 in
10:29 43.5 °F 41 °F 29.9 in NNE 6.7 mph 8.7 mph 87 % 0.11 in
10:30 43.5 °F 41 °F 29.9 in NNE 6.7 mph 8.7 mph 87 % 0.11 in
10:34 43 °F 39.2 °F 29.9 in North 6.9 mph 9.2 mph 86 % 0.11 in
10:40 42.6 °F 39.2 °F 29.9 in North 4.5 mph 9.2 mph 87 % 0.02 in
10:45 42.3 °F 39.2 °F 29.9 in NNE 2.2 mph 7.6 mph 87 % 0.02 in
10:50 43.9 °F 41 °F 29.9 in NE 3.1 mph 7.6 mph 89 % 0.02 in
10:55 46 °F 42.8 °F 29.9 in Calm   4.3 mph 91 % 0.05 in
11:05 48.2 °F 44.6 °F 29.9 in Calm     88 % 0.02 in
11:10 48.9 °F 44.6 °F 29.9 in Calm   4.9 mph 86 % 0.02 in
11:20 50.2 °F 46.4 °F 29.9 in NNW 4.9 mph 4.9 mph 84 % 0.02 in
11:25 50.9 °F 46.4 °F 29.9 in NNW 2.9 mph 5.4 mph 81 % 0.02 in
11:30 51.8 °F 46.4 °F 29.9 in NW 3.6 mph 5.6 mph 80 % 0.02 in
11:35 51.1 °F 44.6 °F 29.9 in West 3.6 mph 5.6 mph 77 % 0.02 in
11:40 52 °F 44.6 °F 29.9 in WNW 3.4 mph 5.6 mph 75 % 0.02 in
11:45 49.8 °F 42.8 °F 29.9 in NNW 6 mph 7.8 mph 72 % 0.01 in
11:50 51.3 °F 42.8 °F 29.9 in North 2.9 mph 8.5 mph 71 % 0.02 in
11:55 52.2 °F 42.8 °F 29.9 in North 5.6 mph 8.5 mph 71 % 0 in
12:00 53.6 °F 44.6 °F 29.9 in NNE 2.5 mph 7.6 mph 70 % 0 in
12:05 51.8 °F 41 °F 29.9 in SSW 4 mph 9.6 mph 66 % 0 in
12:10 50 °F 39.2 °F 29.9 in North 2.5 mph 9.6 mph 66 % 0 in
12:15 50 °F 41 °F 29.9 in NNE 3.4 mph 9.6 mph 68 % 0 in
12:20 50.2 °F 41 °F 29.9 in NW 4 mph 9.6 mph 69 % 0 in
12:25 51.8 °F 42.8 °F 29.9 in North 4.3 mph 7.4 mph 68 % 0 in
12:31 51.6 °F 41 °F 29.9 in WNW 7.4 mph 10.1 mph 64 % 0 in
12:36 52.5 °F 39.2 °F 29.9 in NNW 4 mph 10.1 mph 61 % 0 in
12:41 52.2 °F 39.2 °F 29.9 in North 4 mph 9.8 mph 60 % 0 in
12:46 51.8 °F 39.2 °F 29.9 in North 8.7 mph 13 mph 62 % 0 in
12:51 51.8 °F 39.2 °F 29.9 in NNE 6.5 mph 13 mph 60 % 0 in
12:56 48.7 °F 39.2 °F 29.9 in NNE 13 mph 13 mph 67 % 0 in
13:01 47.7 °F 37.4 °F 29.9 in ENE 7.4 mph 13 mph 69 % 0 in
13:06 47.5 °F 39.2 °F 29.9 in NNE 5.6 mph 13 mph 71 % 0 in
13:11 47.3 °F 39.2 °F 29.9 in NE 5.6 mph 9.2 mph 71 % 0 in
13:16 47.1 °F 39.2 °F 29.9 in Calm   9.2 mph 71 % 0 in
13:21 47.7 °F 39.2 °F 29.9 in NNE 4.3 mph 9.2 mph 72 % 0 in
13:24 48.6 °F 41 °F 29.9 in East 3.4 mph 8.5 mph 73 % 0 in
13:29 48.7 °F 41 °F 29.9 in NE 5.6 mph 6.3 mph 73 % 0 in
13:34 50.2 °F 42.8 °F 29.9 in Calm   6.3 mph 74 % 0 in
13:39 51.8 °F 42.8 °F 29.9 in ENE 2.7 mph 5.6 mph 73 % 0 in
13:44 53.2 °F 44.6 °F 29.9 in ENE 2.9 mph 4.9 mph 71 % 0 in
13:49 53.6 °F 42.8 °F 29.9 in NE 4.3 mph 7.6 mph 67 % 0 in
13:54 54.5 °F 44.6 °F 29.9 in NNW 2.7 mph 10.1 mph 65 % 0 in
13:59 53.1 °F 42.8 °F 29.9 in ENE 7.6 mph 10.1 mph 66 % 0 in
14:04 50.9 °F 39.2 °F 29.9 in NNE 12.8 mph 16.3 mph 63 % 0 in
14:09 49.3 °F 37.4 °F 29.9 in NE 11 mph 16.3 mph 62 % 0 in
14:14 48.7 °F 35.6 °F 29.9 in North 6.5 mph 16.1 mph 60 % 0 in
14:19 48.4 °F 33.8 °F 29.9 in NE 9.8 mph 15.4 mph 58 % 0 in
14:24 48.4 °F 33.8 °F 29.9 in North 7.8 mph 13 mph 56 % 0 in
14:29 48.6 °F 33.8 °F 29.9 in NE 10.7 mph 13 mph 56 % 0 in
14:35 48.6 °F 33.8 °F 29.9 in NNE 5.6 mph 11 mph 57 % 0 in
14:40 48.7 °F 35.6 °F 29.9 in NE 10.3 mph 12.5 mph 59 % 0 in
14:45 49.3 °F 37.4 °F 29.9 in NNE 9.8 mph 12.5 mph 61 % 0 in
14:50 50.5 °F 39.2 °F 29.9 in NNW 10.7 mph 13.2 mph 63 % 0 in
14:55 51.1 °F 39.2 °F 29.9 in North 11.4 mph 14.8 mph 63 % 0 in
15:00 49.5 °F 37.4 °F 29.9 in NNW 12.1 mph 15.2 mph 63 % 0 in
15:05 47.8 °F 37.4 °F 29.9 in NNW 6 mph 15.2 mph 64 % 0 in
15:10 47.5 °F 37.4 °F 29.9 in NNW 3.1 mph 15.2 mph 66 % 0 in
15:15 47.3 °F 37.4 °F 29.9 in North 2.5 mph 7.2 mph 67 % 0 in
15:20 47.3 °F 37.4 °F 29.9 in NNW 3.6 mph 7.2 mph 68 % 0 in
15:25 47.7 °F 37.4 °F 29.9 in North 5.4 mph 6 mph 69 % 0 in
15:30 47.8 °F 39.2 °F 29.9 in NNE 5.6 mph 8.1 mph 69 % 0 in
15:35 47.3 °F 37.4 °F 29.9 in NNW 8.1 mph 10.3 mph 68 % 0 in
15:40 47.1 °F 37.4 °F 29.9 in WNW 5.8 mph 10.3 mph 69 % 0 in
15:45 46.9 °F 37.4 °F 29.9 in Calm   7.6 mph 69 % 0 in
15:50 50.2 °F 41 °F 29.9 in NNW 3.6 mph 5.6 mph 69 % 0 in
15:55 52.5 °F 42.8 °F 29.9 in NNW 6 mph 6 mph 68 % 0 in
16:00 53.4 °F 41 °F 29.9 in NW 8.7 mph 10.7 mph 62 % 0 in
16:05 54.5 °F 42.8 °F 29.9 in North 6.3 mph 10.7 mph 60 % 0 in
16:10 55.6 °F 41 °F 29.9 in NNW 7.4 mph 10.5 mph 58 % 0 in
16:15 55.4 °F 39.2 °F 29.9 in North 10.5 mph 11.9 mph 53 % 0 in
16:21 55.4 °F 39.2 °F 29.9 in NNW 8.9 mph 12.1 mph 52 % 0 in
16:26 54.7 °F 37.4 °F 29.9 in North 5.4 mph 12.1 mph 50 % 0 in
16:31 52.2 °F 33.8 °F 29.9 in WNW 8.7 mph 16.8 mph 50 % 0 in
16:36 53.6 °F 37.4 °F 29.9 in NNW 7.6 mph 16.8 mph 51 % 0 in
16:41 54.5 °F 37.4 °F 29.9 in North 10.1 mph 14.3 mph 50 % 0 in
16:46 52.2 °F 33.8 °F 29.9 in North 9.6 mph 14.3 mph 48 % 0 in
16:51 54.7 °F 37.4 °F 29.9 in NNW 10.1 mph 12.3 mph 49 % 0 in
16:56 52.9 °F 35.6 °F 29.9 in NE 6 mph 13.6 mph 50 % 0 in
17:01 52.5 °F 35.6 °F 29.9 in North 17.2 mph 19.5 mph 51 % 0 in
17:06 52 °F 33.8 °F 29.9 in NNW 10.3 mph 19.5 mph 50 % 0 in
17:11 50.5 °F 33.8 °F 29.9 in North 11 mph 17.2 mph 50 % 0 in
17:16 50 °F 32 °F 29.9 in NNW 5.8 mph 15.7 mph 50 % 0 in
17:21 51.1 °F 33.8 °F 29.9 in NW 2.2 mph 10.3 mph 51 % 0 in
17:26 52.2 °F 35.6 °F 29.9 in North 4 mph 10.3 mph 52 % 0 in
17:31 53.4 °F 35.6 °F 29.9 in North 11 mph 11 mph 51 % 0 in
17:36 51.4 °F 32 °F 29.9 in ENE 8.7 mph 13.2 mph 48 % 0 in
17:41 51.8 °F 33.8 °F 29.9 in North 6 mph 13.2 mph 49 % 0 in
17:46 51.8 °F 33.8 °F 29.9 in North 7.8 mph 13.2 mph 49 % 0 in
17:51 53.2 °F 35.6 °F 29.9 in North 8.5 mph 13.6 mph 50 % 0 in
17:56 54 °F 35.6 °F 29.9 in North 5.6 mph 13.6 mph 50 % 0 in
18:01 53.1 °F 35.6 °F 29.9 in NNW 10.3 mph 15.2 mph 51 % 0 in
18:06 51.1 °F 33.8 °F 29.9 in North 7.8 mph 15.2 mph 52 % 0 in
18:11 51.1 °F 33.8 °F 29.9 in NNE 9.6 mph 12.1 mph 52 % 0 in
18:17 52.2 °F 35.6 °F 29.9 in North 8.5 mph 10.3 mph 51 % 0 in
18:22 53.2 °F 35.6 °F 29.9 in NNW 10.1 mph 10.7 mph 50 % 0 in
18:27 53.1 °F 33.8 °F 29.9 in North 8.7 mph 16.6 mph 48 % 0 in
18:32 53.2 °F 33.8 °F 29.9 in North 4.3 mph 16.6 mph 48 % 0 in
18:37 52.9 °F 33.8 °F 29.9 in NNW 6.5 mph 12.3 mph 48 % 0 in
18:42 52.3 °F 33.8 °F 29.9 in NNE 11 mph 12.3 mph 48 % 0 in
18:47 52 °F 32 °F 29.9 in North 9.8 mph 13.4 mph 47 % 0 in
18:52 51.8 °F 32 °F 29.9 in NNW 5.6 mph 13.4 mph 47 % 0 in
18:57 51.4 °F 32 °F 29.9 in North 6.5 mph 13 mph 48 % 0 in
19:02 50 °F 32 °F 29.9 in NNE 7.4 mph 13 mph 48 % 0 in
19:07 48.7 °F 30.2 °F 30 in North 7.8 mph 12.5 mph 49 % 0 in
19:12 48.2 °F 30.2 °F 30 in North 8.7 mph 12.3 mph 50 % 0 in
19:17 48 °F 32 °F 30 in North 7.8 mph 12.1 mph 51 % 0 in
19:22 47.7 °F 32 °F 30 in NNE 8.1 mph 14.8 mph 52 % 0 in
19:27 48 °F 32 °F 29.9 in NNW 6.9 mph 14.8 mph 53 % 0 in
19:32 48.6 °F 32 °F 29.9 in North 6.5 mph 13.2 mph 52 % 0 in
19:37 48.7 °F 32 °F 30 in NNW 10.7 mph 13.2 mph 51 % 0 in
19:42 48.6 °F 32 °F 30 in NE 8.5 mph 12.3 mph 50 % 0 in
19:47 48.6 °F 32 °F 30 in North 8.1 mph 13.6 mph 51 % 0 in
19:52 48.2 °F 30.2 °F 30 in North 12.1 mph 14.5 mph 50 % 0 in
19:57 47.7 °F 32 °F 30 in North 15.4 mph 18.6 mph 52 % 0 in
20:02 46.8 °F 32 °F 30 in NE 14.3 mph 18.6 mph 54 % 0 in
20:07 46.2 °F 30.2 °F 30 in NNE 10.5 mph 19.5 mph 55 % 0 in
20:12 45.9 °F 30.2 °F 30 in North 10.3 mph 19.5 mph 54 % 0 in
20:17 46 °F 30.2 °F 30 in North 6 mph 16.6 mph 54 % 0 in
20:23 46 °F 30.2 °F 30 in NNE 8.1 mph 11 mph 55 % 0 in
20:28 45.9 °F 30.2 °F 30 in NE 5.6 mph 9.8 mph 55 % 0 in
20:33 45.5 °F 32 °F 30 in North 5.4 mph 8.1 mph 57 % 0 in
20:38 45.1 °F 32 °F 30 in North 3.6 mph 8.1 mph 59 % 0 in
20:39 45 °F 32 °F 30 in NNE 4.3 mph 8.1 mph 58 % 0 in
20:44 44.6 °F 32 °F 30 in NNE 2.7 mph 5.8 mph 59 % 0 in
20:49 44.4 °F 32 °F 30 in NW 3.6 mph 5.6 mph 60 % 0 in
20:54 44.2 °F 32 °F 30 in North 2 mph 5.6 mph 62 % 0 in
20:59 44.1 °F 33.8 °F 30 in NNW 4 mph 6.5 mph 64 % 0 in
21:04 43.7 °F 33.8 °F 30 in North 2.5 mph 6.5 mph 65 % 0 in
21:09 43.5 °F 33.8 °F 30 in Calm   5.4 mph 67 % 0 in
21:14 43.3 °F 33.8 °F 30 in NNW 2.7 mph 5.4 mph 68 % 0 in
21:19 43 °F 33.8 °F 30 in North 4.3 mph 5.4 mph 68 % 0 in
21:24 42.8 °F 33.8 °F 30 in Calm   4.7 mph 68 % 0 in
21:29 42.4 °F 33.8 °F 30 in North 2.2 mph 4.7 mph 69 % 0 in
21:35 42.3 °F 33.8 °F 30 in NNW 2.9 mph 3.4 mph 69 % 0 in
21:40 42.1 °F 33.8 °F 30 in Calm   2.9 mph 70 % 0 in
21:45 41.7 °F 33.8 °F 30 in Calm   2.2 mph 70 % 0 in
21:50 41.5 °F 33.8 °F 30 in Calm   1.3 mph 70 % 0 in
21:55 41 °F 33.8 °F 30 in Calm     71 % 0 in
22:00 41 °F 33.8 °F 30 in North 2.5 mph 2.7 mph 72 % 0 in
22:05 40.6 °F 32 °F 30 in Calm   3.4 mph 72 % 0 in
22:10 40.5 °F 32 °F 30 in Calm   3.4 mph 73 % 0 in
22:15 40.3 °F 32 °F 30 in Calm     72 % 0 in
22:20 39.9 °F 32 °F 30 in Calm   2 mph 72 % 0 in
22:25 39.7 °F 32 °F 30 in Calm   2 mph 73 % 0 in
22:30 39.7 °F 32 °F 30 in WNW 2.2 mph 2.2 mph 74 % 0 in
22:35 39.7 °F 32 °F 30 in WNW 1.3 mph 3.1 mph 74 % 0 in
22:40 39.6 °F 33.8 °F 30 in Calm   4.7 mph 75 % 0 in
22:45 39.7 °F 33.8 °F 30 in Calm   4.7 mph 77 % 0 in
22:50 39.7 °F 33.8 °F 30 in Calm   4.3 mph 76 % 0 in
22:55 39.7 °F 33.8 °F 30 in West 1.3 mph 2.9 mph 76 % 0 in
23:05 39.4 °F 32 °F 30 in Calm   4 mph 76 % 0 in
23:10 39.4 °F 33.8 °F 30 in WNW 2.5 mph 5.4 mph 77 % 0 in
23:15 39.4 °F 33.8 °F 30 in NW 2.9 mph 5.6 mph 77 % 0 in
23:20 39.6 °F 33.8 °F 30 in NNW 5.8 mph 5.8 mph 78 % 0 in
23:25 39.7 °F 33.8 °F 30 in NW 4 mph 5.8 mph 78 % 0 in
23:30 39.7 °F 33.8 °F 30 in WNW 2.5 mph 5.8 mph 78 % 0 in
23:35 39.7 °F 33.8 °F 30 in NW 2.9 mph 5.4 mph 78 % 0 in
23:41 39.7 °F 33.8 °F 30 in NNW 3.6 mph 5.6 mph 78 % 0 in
23:46 39.7 °F 33.8 °F 30 in NNW 2.5 mph 6 mph 78 % 0 in
23:51 39.9 °F 33.8 °F 30 in NNE 2.5 mph 6 mph 79 % 0 in
23:56 39.9 °F 33.8 °F 30 in NNW 2 mph 4.3 mph 79 % 0 in
Le Gheer Warneton
Courtoisie de Weather Underground - 2.25 mb

Mise a jour : 18/12/2017 17:45:12
Généré par Cumulus 1.9.4 (1099)